sensor_id;sensor_type;location;lat;lon;timestamp;pressure;altitude;pressure_sealevel;temperature;humidity
61359;BME280;47228;46.762;23.598;2024-01-15T00:02:26;96227.92;;;-3.12;73.22
61359;BME280;47228;46.762;23.598;2024-01-15T00:04:54;96231.85;;;-3.12;73.49
61359;BME280;47228;46.762;23.598;2024-01-15T00:07:22;96234.89;;;-3.11;73.71
61359;BME280;47228;46.762;23.598;2024-01-15T00:09:50;96230.84;;;-3.10;73.73
61359;BME280;47228;46.762;23.598;2024-01-15T00:12:19;96232.97;;;-3.08;73.90
61359;BME280;47228;46.762;23.598;2024-01-15T00:14:47;96231.78;;;-3.07;73.98
61359;BME280;47228;46.762;23.598;2024-01-15T00:17:15;96225.16;;;-3.06;73.98
61359;BME280;47228;46.762;23.598;2024-01-15T00:19:43;96218.52;;;-3.08;73.57
61359;BME280;47228;46.762;23.598;2024-01-15T00:22:11;96214.42;;;-3.08;73.77
61359;BME280;47228;46.762;23.598;2024-01-15T00:24:39;96212.23;;;-3.09;73.70
61359;BME280;47228;46.762;23.598;2024-01-15T00:27:07;96210.23;;;-3.09;73.89
61359;BME280;47228;46.762;23.598;2024-01-15T00:29:35;96205.00;;;-3.09;73.90
61359;BME280;47228;46.762;23.598;2024-01-15T00:32:04;96203.59;;;-3.11;73.83
61359;BME280;47228;46.762;23.598;2024-01-15T00:34:32;96203.95;;;-3.13;73.71
61359;BME280;47228;46.762;23.598;2024-01-15T00:37:00;96202.88;;;-3.18;73.52
61359;BME280;47228;46.762;23.598;2024-01-15T00:39:28;96204.86;;;-3.25;73.82
61359;BME280;47228;46.762;23.598;2024-01-15T00:41:56;96200.16;;;-3.30;73.98
61359;BME280;47228;46.762;23.598;2024-01-15T00:44:24;96197.54;;;-3.32;74.43
61359;BME280;47228;46.762;23.598;2024-01-15T00:46:52;96198.89;;;-3.33;74.32
61359;BME280;47228;46.762;23.598;2024-01-15T00:49:21;96196.48;;;-3.35;74.31
61359;BME280;47228;46.762;23.598;2024-01-15T00:51:49;96193.62;;;-3.36;74.47
61359;BME280;47228;46.762;23.598;2024-01-15T00:54:17;96197.34;;;-3.37;74.60
61359;BME280;47228;46.762;23.598;2024-01-15T00:56:47;96188.80;;;-3.37;74.63
61359;BME280;47228;46.762;23.598;2024-01-15T00:59:18;96178.27;;;-3.35;74.82
61359;BME280;47228;46.762;23.598;2024-01-15T01:01:48;96176.28;;;-3.34;74.81
61359;BME280;47228;46.762;23.598;2024-01-15T01:04:16;96174.02;;;-3.34;74.71
61359;BME280;47228;46.762;23.598;2024-01-15T01:06:45;96173.40;;;-3.33;74.96
61359;BME280;47228;46.762;23.598;2024-01-15T01:09:13;96173.02;;;-3.32;74.83
61359;BME280;47228;46.762;23.598;2024-01-15T01:11:41;96172.89;;;-3.33;74.93
61359;BME280;47228;46.762;23.598;2024-01-15T01:14:09;96166.16;;;-3.33;75.18
61359;BME280;47228;46.762;23.598;2024-01-15T01:16:37;96165.54;;;-3.34;75.09
61359;BME280;47228;46.762;23.598;2024-01-15T01:19:07;96164.22;;;-3.33;75.11
61359;BME280;47228;46.762;23.598;2024-01-15T01:21:36;96160.05;;;-3.31;75.16
61359;BME280;47228;46.762;23.598;2024-01-15T01:24:04;96162.25;;;-3.29;75.16
61359;BME280;47228;46.762;23.598;2024-01-15T01:26:32;96161.80;;;-3.26;75.33
61359;BME280;47228;46.762;23.598;2024-01-15T01:29:01;96157.21;;;-3.23;75.50
61359;BME280;47228;46.762;23.598;2024-01-15T01:31:29;96154.95;;;-3.19;75.81
61359;BME280;47228;46.762;23.598;2024-01-15T01:33:57;96145.76;;;-3.13;76.04
61359;BME280;47228;46.762;23.598;2024-01-15T01:36:25;96140.45;;;-3.08;76.07
61359;BME280;47228;46.762;23.598;2024-01-15T01:38:54;96133.54;;;-3.05;76.13
61359;BME280;47228;46.762;23.598;2024-01-15T01:41:22;96128.59;;;-3.02;76.05
61359;BME280;47228;46.762;23.598;2024-01-15T01:43:52;96124.55;;;-2.97;76.13
61359;BME280;47228;46.762;23.598;2024-01-15T01:46:20;96121.54;;;-2.95;75.85
61359;BME280;47228;46.762;23.598;2024-01-15T01:48:48;96118.66;;;-2.94;75.64
61359;BME280;47228;46.762;23.598;2024-01-15T01:51:16;96116.10;;;-2.92;75.56
61359;BME280;47228;46.762;23.598;2024-01-15T01:53:45;96115.91;;;-2.92;75.63
61359;BME280;47228;46.762;23.598;2024-01-15T01:56:13;96106.90;;;-2.90;75.94
61359;BME280;47228;46.762;23.598;2024-01-15T01:58:42;96109.64;;;-2.88;75.87
61359;BME280;47228;46.762;23.598;2024-01-15T02:01:12;96096.23;;;-2.91;75.75
61359;BME280;47228;46.762;23.598;2024-01-15T02:03:40;96088.27;;;-2.92;75.90
61359;BME280;47228;46.762;23.598;2024-01-15T02:06:09;96090.73;;;-2.92;75.97
61359;BME280;47228;46.762;23.598;2024-01-15T02:08:38;96080.61;;;-2.91;76.16
61359;BME280;47228;46.762;23.598;2024-01-15T02:11:06;96078.95;;;-2.88;76.21
61359;BME280;47228;46.762;23.598;2024-01-15T02:13:34;96071.56;;;-2.87;76.02
61359;BME280;47228;46.762;23.598;2024-01-15T02:16:03;96073.23;;;-2.84;76.15
61359;BME280;47228;46.762;23.598;2024-01-15T02:18:40;96073.22;;;-2.81;76.45
61359;BME280;47228;46.762;23.598;2024-01-15T02:21:09;96067.13;;;-2.77;76.47
61359;BME280;47228;46.762;23.598;2024-01-15T02:23:38;96071.59;;;-2.75;76.17
61359;BME280;47228;46.762;23.598;2024-01-15T02:26:07;96072.34;;;-2.72;76.29
61359;BME280;47228;46.762;23.598;2024-01-15T02:28:36;96067.33;;;-2.68;76.32
61359;BME280;47228;46.762;23.598;2024-01-15T02:31:04;96056.98;;;-2.67;76.09
61359;BME280;47228;46.762;23.598;2024-01-15T02:33:32;96051.27;;;-2.69;75.94
61359;BME280;47228;46.762;23.598;2024-01-15T02:36:00;96054.16;;;-2.70;75.95
61359;BME280;47228;46.762;23.598;2024-01-15T02:38:29;96047.10;;;-2.71;76.04
61359;BME280;47228;46.762;23.598;2024-01-15T02:40:57;96053.02;;;-2.75;75.69
61359;BME280;47228;46.762;23.598;2024-01-15T02:43:25;96043.91;;;-2.82;75.49
61359;BME280;47228;46.762;23.598;2024-01-15T02:45:53;96034.19;;;-2.88;75.67
61359;BME280;47228;46.762;23.598;2024-01-15T02:48:21;96030.65;;;-2.91;75.86
61359;BME280;47228;46.762;23.598;2024-01-15T02:50:49;96030.33;;;-2.91;76.26
61359;BME280;47228;46.762;23.598;2024-01-15T02:53:17;96027.95;;;-2.88;76.30
61359;BME280;47228;46.762;23.598;2024-01-15T02:55:46;96025.30;;;-2.87;76.13
61359;BME280;47228;46.762;23.598;2024-01-15T02:58:14;96026.50;;;-2.87;75.94
61359;BME280;47228;46.762;23.598;2024-01-15T03:00:43;96020.91;;;-2.87;76.39
61359;BME280;47228;46.762;23.598;2024-01-15T03:03:12;96019.66;;;-2.84;76.56
61359;BME280;47228;46.762;23.598;2024-01-15T03:05:40;96019.52;;;-2.83;76.47
61359;BME280;47228;46.762;23.598;2024-01-15T03:08:08;96019.34;;;-2.79;76.47
61359;BME280;47228;46.762;23.598;2024-01-15T03:10:36;96014.71;;;-2.75;76.56
61359;BME280;47228;46.762;23.598;2024-01-15T03:13:04;96019.27;;;-2.71;76.51
61359;BME280;47228;46.762;23.598;2024-01-15T03:15:33;96012.99;;;-2.66;76.52
61359;BME280;47228;46.762;23.598;2024-01-15T03:18:01;96000.41;;;-2.61;76.37
61359;BME280;47228;46.762;23.598;2024-01-15T03:20:29;95995.66;;;-2.57;76.28
61359;BME280;47228;46.762;23.598;2024-01-15T03:22:57;95997.00;;;-2.56;76.00
61359;BME280;47228;46.762;23.598;2024-01-15T03:25:25;96003.11;;;-2.55;76.03
61359;BME280;47228;46.762;23.598;2024-01-15T03:27:53;96003.84;;;-2.53;76.00
61359;BME280;47228;46.762;23.598;2024-01-15T03:30:21;96005.17;;;-2.51;75.79
61359;BME280;47228;46.762;23.598;2024-01-15T03:32:49;95997.21;;;-2.52;75.79
61359;BME280;47228;46.762;23.598;2024-01-15T03:35:18;95997.27;;;-2.50;75.95
61359;BME280;47228;46.762;23.598;2024-01-15T03:37:46;96001.70;;;-2.50;75.76
61359;BME280;47228;46.762;23.598;2024-01-15T03:40:14;96000.64;;;-2.49;75.62
61359;BME280;47228;46.762;23.598;2024-01-15T03:42:46;95996.06;;;-2.47;75.87
61359;BME280;47228;46.762;23.598;2024-01-15T03:45:15;95994.86;;;-2.44;75.93
61359;BME280;47228;46.762;23.598;2024-01-15T03:47:43;95990.73;;;-2.40;75.79
61359;BME280;47228;46.762;23.598;2024-01-15T03:50:11;95989.67;;;-2.38;75.63
61359;BME280;47228;46.762;23.598;2024-01-15T03:52:39;95987.41;;;-2.35;75.47
61359;BME280;47228;46.762;23.598;2024-01-15T03:55:07;95979.46;;;-2.37;75.21
61359;BME280;47228;46.762;23.598;2024-01-15T03:57:35;95974.55;;;-2.36;75.44
61359;BME280;47228;46.762;23.598;2024-01-15T04:00:05;95979.44;;;-2.37;75.42
61359;BME280;47228;46.762;23.598;2024-01-15T04:02:34;95975.56;;;-2.38;75.36
61359;BME280;47228;46.762;23.598;2024-01-15T04:05:02;95966.52;;;-2.37;75.36
61359;BME280;47228;46.762;23.598;2024-01-15T04:07:30;95965.98;;;-2.36;75.50
61359;BME280;47228;46.762;23.598;2024-01-15T04:09:58;95952.82;;;-2.34;75.32
61359;BME280;47228;46.762;23.598;2024-01-15T04:12:27;95951.46;;;-2.34;75.31
61359;BME280;47228;46.762;23.598;2024-01-15T04:14:55;95949.96;;;-2.35;75.31
61359;BME280;47228;46.762;23.598;2024-01-15T04:17:23;95947.75;;;-2.35;75.26
61359;BME280;47228;46.762;23.598;2024-01-15T04:19:52;95948.20;;;-2.36;75.31
61359;BME280;47228;46.762;23.598;2024-01-15T04:22:20;95943.48;;;-2.38;75.21
61359;BME280;47228;46.762;23.598;2024-01-15T04:24:48;95944.32;;;-2.39;75.30
61359;BME280;47228;46.762;23.598;2024-01-15T04:27:17;95937.73;;;-2.39;75.26
61359;BME280;47228;46.762;23.598;2024-01-15T04:29:45;95941.88;;;-2.39;75.19
61359;BME280;47228;46.762;23.598;2024-01-15T04:32:13;95947.83;;;-2.41;75.04
61359;BME280;47228;46.762;23.598;2024-01-15T04:34:41;95944.32;;;-2.44;74.75
61359;BME280;47228;46.762;23.598;2024-01-15T04:37:09;95941.70;;;-2.49;74.44
61359;BME280;47228;46.762;23.598;2024-01-15T04:39:37;95938.40;;;-2.54;74.28
61359;BME280;47228;46.762;23.598;2024-01-15T04:42:05;95937.29;;;-2.57;74.50
61359;BME280;47228;46.762;23.598;2024-01-15T04:44:33;95935.59;;;-2.57;74.64
61359;BME280;47228;46.762;23.598;2024-01-15T04:47:02;95932.92;;;-2.57;74.85
61359;BME280;47228;46.762;23.598;2024-01-15T04:49:30;95941.27;;;-2.55;74.89
61359;BME280;47228;46.762;23.598;2024-01-15T04:51:58;95950.79;;;-2.55;74.93
61359;BME280;47228;46.762;23.598;2024-01-15T04:54:29;95944.20;;;-2.53;74.80
61359;BME280;47228;46.762;23.598;2024-01-15T04:56:57;95937.71;;;-2.54;74.71
61359;BME280;47228;46.762;23.598;2024-01-15T04:59:26;95937.84;;;-2.56;74.96
61359;BME280;47228;46.762;23.598;2024-01-15T05:01:55;95935.67;;;-2.55;75.00
61359;BME280;47228;46.762;23.598;2024-01-15T05:04:23;95933.33;;;-2.54;75.00
61359;BME280;47228;46.762;23.598;2024-01-15T05:06:53;95924.98;;;-2.52;75.09
61359;BME280;47228;46.762;23.598;2024-01-15T05:09:22;95912.85;;;-2.49;75.06
61359;BME280;47228;46.762;23.598;2024-01-15T05:11:50;95907.37;;;-2.44;75.12
61359;BME280;47228;46.762;23.598;2024-01-15T05:14:18;95904.30;;;-2.38;75.28
61359;BME280;47228;46.762;23.598;2024-01-15T05:16:47;95899.18;;;-2.31;75.14
61359;BME280;47228;46.762;23.598;2024-01-15T05:19:16;95895.04;;;-2.27;74.97
61359;BME280;47228;46.762;23.598;2024-01-15T05:21:44;95882.30;;;-2.24;74.83
61359;BME280;47228;46.762;23.598;2024-01-15T05:24:13;95882.17;;;-2.21;74.79
61359;BME280;47228;46.762;23.598;2024-01-15T05:26:41;95896.84;;;-2.22;74.58
61359;BME280;47228;46.762;23.598;2024-01-15T05:29:09;95885.67;;;-2.24;74.59
61359;BME280;47228;46.762;23.598;2024-01-15T05:31:37;95898.61;;;-2.25;74.51
61359;BME280;47228;46.762;23.598;2024-01-15T05:34:06;95897.27;;;-2.27;74.58
61359;BME280;47228;46.762;23.598;2024-01-15T05:36:34;95886.20;;;-2.25;74.99
61359;BME280;47228;46.762;23.598;2024-01-15T05:39:02;95883.83;;;-2.22;74.86
61359;BME280;47228;46.762;23.598;2024-01-15T05:41:30;95881.98;;;-2.18;75.06
61359;BME280;47228;46.762;23.598;2024-01-15T05:43:58;95876.27;;;-2.14;75.07
61359;BME280;47228;46.762;23.598;2024-01-15T05:46:27;95868.93;;;-2.10;74.93
61359;BME280;47228;46.762;23.598;2024-01-15T05:48:55;95863.48;;;-2.08;74.85
61359;BME280;47228;46.762;23.598;2024-01-15T05:51:23;95857.29;;;-2.05;75.11
61359;BME280;47228;46.762;23.598;2024-01-15T05:53:51;95860.99;;;-2.04;74.80
61359;BME280;47228;46.762;23.598;2024-01-15T05:56:19;95856.83;;;-2.06;74.66
61359;BME280;47228;46.762;23.598;2024-01-15T05:58:47;95850.95;;;-2.06;74.76
61359;BME280;47228;46.762;23.598;2024-01-15T06:01:16;95855.11;;;-2.06;74.70
61359;BME280;47228;46.762;23.598;2024-01-15T06:03:44;95855.95;;;-2.06;74.56
61359;BME280;47228;46.762;23.598;2024-01-15T06:06:12;95847.77;;;-2.09;74.40
61359;BME280;47228;46.762;23.598;2024-01-15T06:08:41;95844.51;;;-2.13;74.49
61359;BME280;47228;46.762;23.598;2024-01-15T06:11:09;95842.00;;;-2.13;74.51
61359;BME280;47228;46.762;23.598;2024-01-15T06:13:37;95841.92;;;-2.13;74.49
61359;BME280;47228;46.762;23.598;2024-01-15T06:16:13;95840.44;;;-2.12;74.73
61359;BME280;47228;46.762;23.598;2024-01-15T06:18:43;95835.34;;;-2.11;74.78
61359;BME280;47228;46.762;23.598;2024-01-15T06:21:11;95837.80;;;-2.11;74.49
61359;BME280;47228;46.762;23.598;2024-01-15T06:23:42;95832.77;;;-2.11;74.43
61359;BME280;47228;46.762;23.598;2024-01-15T06:26:14;95830.63;;;-2.11;74.44
61359;BME280;47228;46.762;23.598;2024-01-15T06:28:45;95828.08;;;-2.13;74.46
61359;BME280;47228;46.762;23.598;2024-01-15T06:31:13;95835.81;;;-2.12;74.35
61359;BME280;47228;46.762;23.598;2024-01-15T06:33:42;95833.18;;;-2.12;74.53
61359;BME280;47228;46.762;23.598;2024-01-15T06:36:10;95830.45;;;-2.12;74.40
61359;BME280;47228;46.762;23.598;2024-01-15T06:38:39;95826.52;;;-2.11;74.43
61359;BME280;47228;46.762;23.598;2024-01-15T06:41:07;95830.07;;;-2.10;74.40
61359;BME280;47228;46.762;23.598;2024-01-15T06:43:35;95831.66;;;-2.12;74.31
61359;BME280;47228;46.762;23.598;2024-01-15T06:46:03;95827.49;;;-2.11;74.39
61359;BME280;47228;46.762;23.598;2024-01-15T06:48:35;95828.40;;;-2.11;74.35
61359;BME280;47228;46.762;23.598;2024-01-15T06:51:04;95830.92;;;-2.14;74.26
61359;BME280;47228;46.762;23.598;2024-01-15T06:53:32;95822.27;;;-2.14;74.42
61359;BME280;47228;46.762;23.598;2024-01-15T06:56:00;95821.54;;;-2.13;74.72
61359;BME280;47228;46.762;23.598;2024-01-15T06:58:28;95816.98;;;-2.11;74.82
61359;BME280;47228;46.762;23.598;2024-01-15T07:00:58;95819.49;;;-2.07;74.92
61359;BME280;47228;46.762;23.598;2024-01-15T07:03:27;95820.52;;;-2.03;74.91
61359;BME280;47228;46.762;23.598;2024-01-15T07:05:55;95816.27;;;-1.98;74.99
61359;BME280;47228;46.762;23.598;2024-01-15T07:08:23;95809.55;;;-1.92;75.02
61359;BME280;47228;46.762;23.598;2024-01-15T07:10:53;95797.96;;;-1.84;75.13
61359;BME280;47228;46.762;23.598;2024-01-15T07:13:21;95796.30;;;-1.76;75.15
61359;BME280;47228;46.762;23.598;2024-01-15T07:15:50;95802.86;;;-1.71;74.82
61359;BME280;47228;46.762;23.598;2024-01-15T07:18:18;95793.95;;;-1.67;74.72
61359;BME280;47228;46.762;23.598;2024-01-15T07:20:51;95789.52;;;-1.62;74.76
61359;BME280;47228;46.762;23.598;2024-01-15T07:23:19;95793.35;;;-1.58;74.74
61359;BME280;47228;46.762;23.598;2024-01-15T07:25:47;95798.69;;;-1.56;74.57
61359;BME280;47228;46.762;23.598;2024-01-15T07:28:18;95794.42;;;-1.55;74.32
61359;BME280;47228;46.762;23.598;2024-01-15T07:30:46;95795.43;;;-1.57;74.31
61359;BME280;47228;46.762;23.598;2024-01-15T07:33:14;95793.45;;;-1.57;74.35
61359;BME280;47228;46.762;23.598;2024-01-15T07:35:45;95792.64;;;-1.56;74.47
61359;BME280;47228;46.762;23.598;2024-01-15T07:38:13;95794.98;;;-1.52;74.76
61359;BME280;47228;46.762;23.598;2024-01-15T07:40:41;95792.65;;;-1.48;74.77
61359;BME280;47228;46.762;23.598;2024-01-15T07:43:10;95792.70;;;-1.42;74.79
61359;BME280;47228;46.762;23.598;2024-01-15T07:45:38;95783.75;;;-1.38;74.60
61359;BME280;47228;46.762;23.598;2024-01-15T07:48:08;95781.52;;;-1.35;74.63
61359;BME280;47228;46.762;23.598;2024-01-15T07:50:37;95773.77;;;-1.31;74.66
61359;BME280;47228;46.762;23.598;2024-01-15T07:53:06;95780.54;;;-1.27;74.63
61359;BME280;47228;46.762;23.598;2024-01-15T07:55:34;95791.75;;;-1.23;74.56
61359;BME280;47228;46.762;23.598;2024-01-15T07:58:02;95788.48;;;-1.22;74.32
61359;BME280;47228;46.762;23.598;2024-01-15T08:00:43;95778.92;;;-1.19;74.45
61359;BME280;47228;46.762;23.598;2024-01-15T08:03:11;95790.89;;;-1.17;74.51
61359;BME280;47228;46.762;23.598;2024-01-15T08:05:41;95797.13;;;-1.13;74.28
61359;BME280;47228;46.762;23.598;2024-01-15T08:08:09;95792.45;;;-1.09;74.45
61359;BME280;47228;46.762;23.598;2024-01-15T08:10:37;95793.89;;;-1.03;74.64
61359;BME280;47228;46.762;23.598;2024-01-15T08:13:06;95792.79;;;-0.96;74.89
61359;BME280;47228;46.762;23.598;2024-01-15T08:15:36;95787.58;;;-0.89;74.72
61359;BME280;47228;46.762;23.598;2024-01-15T08:18:05;95781.96;;;-0.82;74.55
61359;BME280;47228;46.762;23.598;2024-01-15T08:20:34;95780.07;;;-0.76;74.48
61359;BME280;47228;46.762;23.598;2024-01-15T08:23:05;95774.20;;;-0.69;74.56
61359;BME280;47228;46.762;23.598;2024-01-15T08:25:34;95771.23;;;-0.62;74.40
61359;BME280;47228;46.762;23.598;2024-01-15T08:28:02;95767.86;;;-0.56;74.24
61359;BME280;47228;46.762;23.598;2024-01-15T08:30:31;95758.32;;;-0.48;74.15
61359;BME280;47228;46.762;23.598;2024-01-15T08:32:59;95750.48;;;-0.40;74.10
61359;BME280;47228;46.762;23.598;2024-01-15T08:35:38;95753.98;;;-0.32;74.07
61359;BME280;47228;46.762;23.598;2024-01-15T08:38:06;95751.49;;;-0.27;73.78
61359;BME280;47228;46.762;23.598;2024-01-15T08:40:34;95751.00;;;-0.23;73.76
61359;BME280;47228;46.762;23.598;2024-01-15T08:43:02;95745.95;;;-0.18;73.59
61359;BME280;47228;46.762;23.598;2024-01-15T08:45:31;95739.86;;;-0.13;73.40
61359;BME280;47228;46.762;23.598;2024-01-15T08:47:59;95729.61;;;-0.09;73.25
61359;BME280;47228;46.762;23.598;2024-01-15T08:50:29;95732.63;;;-0.08;73.02
61359;BME280;47228;46.762;23.598;2024-01-15T08:52:57;95732.43;;;-0.08;72.91
61359;BME280;47228;46.762;23.598;2024-01-15T08:55:26;95726.89;;;-0.05;73.00
61359;BME280;47228;46.762;23.598;2024-01-15T08:57:54;95730.48;;;0.01;73.10
61359;BME280;47228;46.762;23.598;2024-01-15T09:00:22;95733.74;;;0.07;73.08
61359;BME280;47228;46.762;23.598;2024-01-15T09:02:50;95731.18;;;0.13;72.93
61359;BME280;47228;46.762;23.598;2024-01-15T09:05:19;95735.00;;;0.18;72.85
61359;BME280;47228;46.762;23.598;2024-01-15T09:07:47;95736.24;;;0.23;72.81
61359;BME280;47228;46.762;23.598;2024-01-15T09:10:15;95732.54;;;0.28;72.62
61359;BME280;47228;46.762;23.598;2024-01-15T09:12:44;95724.59;;;0.34;72.64
61359;BME280;47228;46.762;23.598;2024-01-15T09:15:12;95721.10;;;0.38;72.42
61359;BME280;47228;46.762;23.598;2024-01-15T09:17:40;95720.31;;;0.44;72.42
61359;BME280;47228;46.762;23.598;2024-01-15T09:20:09;95720.29;;;0.46;71.89
61359;BME280;47228;46.762;23.598;2024-01-15T09:22:38;95715.04;;;0.49;72.16
61359;BME280;47228;46.762;23.598;2024-01-15T09:25:09;95718.66;;;0.52;72.01
61359;BME280;47228;46.762;23.598;2024-01-15T09:27:37;95721.23;;;0.56;71.71
61359;BME280;47228;46.762;23.598;2024-01-15T09:30:06;95720.20;;;0.60;71.64
61359;BME280;47228;46.762;23.598;2024-01-15T09:32:35;95709.27;;;0.64;71.49
61359;BME280;47228;46.762;23.598;2024-01-15T09:35:03;95708.54;;;0.69;71.50
61359;BME280;47228;46.762;23.598;2024-01-15T09:37:31;95703.04;;;0.76;71.59
61359;BME280;47228;46.762;23.598;2024-01-15T09:40:14;95706.20;;;0.83;71.40
61359;BME280;47228;46.762;23.598;2024-01-15T09:42:44;95702.00;;;0.91;71.36
61359;BME280;47228;46.762;23.598;2024-01-15T09:45:13;95697.25;;;0.99;71.13
61359;BME280;47228;46.762;23.598;2024-01-15T09:47:42;95697.45;;;1.07;70.91
61359;BME280;47228;46.762;23.598;2024-01-15T09:50:13;95700.27;;;1.14;70.70
61359;BME280;47228;46.762;23.598;2024-01-15T09:52:43;95697.38;;;1.19;70.53
61359;BME280;47228;46.762;23.598;2024-01-15T09:55:13;95698.59;;;1.24;70.54
61359;BME280;47228;46.762;23.598;2024-01-15T09:57:44;95696.58;;;1.29;70.35
61359;BME280;47228;46.762;23.598;2024-01-15T10:00:13;95695.39;;;1.33;70.31
61359;BME280;47228;46.762;23.598;2024-01-15T10:02:42;95688.89;;;1.38;70.32
61359;BME280;47228;46.762;23.598;2024-01-15T10:05:11;95686.81;;;1.45;70.20
61359;BME280;47228;46.762;23.598;2024-01-15T10:07:39;95687.77;;;1.53;70.17
61359;BME280;47228;46.762;23.598;2024-01-15T10:10:08;95693.46;;;1.59;70.01
61359;BME280;47228;46.762;23.598;2024-01-15T10:12:38;95696.17;;;1.66;69.88
61359;BME280;47228;46.762;23.598;2024-01-15T10:15:09;95696.89;;;1.73;69.85
61359;BME280;47228;46.762;23.598;2024-01-15T10:17:39;95695.24;;;1.80;69.80
61359;BME280;47228;46.762;23.598;2024-01-15T10:20:12;95695.09;;;1.85;69.71
61359;BME280;47228;46.762;23.598;2024-01-15T10:22:44;95693.69;;;1.91;69.59
61359;BME280;47228;46.762;23.598;2024-01-15T10:25:16;95689.05;;;1.96;69.48
61359;BME280;47228;46.762;23.598;2024-01-15T10:28:00;95686.85;;;2.03;69.50
61359;BME280;47228;46.762;23.598;2024-01-15T10:30:29;95690.38;;;2.08;69.38
61359;BME280;47228;46.762;23.598;2024-01-15T10:33:01;95687.44;;;2.12;69.37
61359;BME280;47228;46.762;23.598;2024-01-15T10:35:34;95687.05;;;2.15;69.08
61359;BME280;47228;46.762;23.598;2024-01-15T10:38:02;95684.98;;;2.18;68.98
61359;BME280;47228;46.762;23.598;2024-01-15T10:40:31;95677.52;;;2.20;68.75
61359;BME280;47228;46.762;23.598;2024-01-15T10:42:59;95676.98;;;2.22;68.80
61359;BME280;47228;46.762;23.598;2024-01-15T10:45:27;95672.32;;;2.24;68.98
61359;BME280;47228;46.762;23.598;2024-01-15T10:47:56;95670.93;;;2.27;69.00
61359;BME280;47228;46.762;23.598;2024-01-15T10:50:29;95669.96;;;2.29;68.81
61359;BME280;47228;46.762;23.598;2024-01-15T10:53:01;95672.23;;;2.31;68.73
61359;BME280;47228;46.762;23.598;2024-01-15T10:55:32;95675.84;;;2.32;68.75
61359;BME280;47228;46.762;23.598;2024-01-15T10:58:02;95680.27;;;2.33;68.50
61359;BME280;47228;46.762;23.598;2024-01-15T11:00:31;95683.55;;;2.34;68.33
61359;BME280;47228;46.762;23.598;2024-01-15T11:03:01;95683.95;;;2.35;68.33
61359;BME280;47228;46.762;23.598;2024-01-15T11:05:33;95680.26;;;2.37;68.40
61359;BME280;47228;46.762;23.598;2024-01-15T11:08:05;95678.09;;;2.38;68.45
61359;BME280;47228;46.762;23.598;2024-01-15T11:10:38;95675.60;;;2.41;68.27
61359;BME280;47228;46.762;23.598;2024-01-15T11:13:15;95674.46;;;2.44;68.37
61359;BME280;47228;46.762;23.598;2024-01-15T11:16:00;95671.64;;;2.45;68.39
61359;BME280;47228;46.762;23.598;2024-01-15T11:18:31;95673.98;;;2.48;68.31
61359;BME280;47228;46.762;23.598;2024-01-15T11:29:05;95688.48;;;2.32;67.51
61359;BME280;47228;46.762;23.598;2024-01-15T11:34:09;95691.94;;;2.18;67.21
61359;BME280;47228;46.762;23.598;2024-01-15T11:42:03;95690.04;;;1.94;67.30
61359;BME280;47228;46.762;23.598;2024-01-15T11:44:31;95697.79;;;1.86;67.25
61359;BME280;47228;46.762;23.598;2024-01-15T11:47:08;95703.45;;;1.78;67.25
61359;BME280;47228;46.762;23.598;2024-01-15T11:52:25;95711.29;;;1.62;67.59
61359;BME280;47228;46.762;23.598;2024-01-15T11:55:11;95707.25;;;1.57;67.72
61359;BME280;47228;46.762;23.598;2024-01-15T11:57:52;95710.45;;;1.50;67.95
61359;BME280;47228;46.762;23.598;2024-01-15T12:00:23;95706.92;;;1.45;68.15
61359;BME280;47228;46.762;23.598;2024-01-15T12:02:51;95705.57;;;1.41;68.44
61359;BME280;47228;46.762;23.598;2024-01-15T12:05:20;95705.35;;;1.39;68.77
61359;BME280;47228;46.762;23.598;2024-01-15T12:07:49;95709.86;;;1.36;68.90
61359;BME280;47228;46.762;23.598;2024-01-15T12:10:19;95707.11;;;1.33;69.33
61359;BME280;47228;46.762;23.598;2024-01-15T12:13:33;95710.27;;;1.31;69.65
61359;BME280;47228;46.762;23.598;2024-01-15T12:15:54;95707.66;;;1.30;69.91
61359;BME280;47228;46.762;23.598;2024-01-15T12:18:22;95709.91;;;1.28;70.19
61359;BME280;47228;46.762;23.598;2024-01-15T12:20:54;95708.30;;;1.29;70.72
61359;BME280;47228;46.762;23.598;2024-01-15T12:23:26;95709.57;;;1.31;70.90
61359;BME280;47228;46.762;23.598;2024-01-15T12:25:55;95708.27;;;1.32;70.91
61359;BME280;47228;46.762;23.598;2024-01-15T12:28:23;95704.74;;;1.31;71.02
61359;BME280;47228;46.762;23.598;2024-01-15T12:30:55;95703.27;;;1.30;71.25
61359;BME280;47228;46.762;23.598;2024-01-15T12:33:25;95695.91;;;1.29;71.38
61359;BME280;47228;46.762;23.598;2024-01-15T12:35:54;95693.33;;;1.30;71.63
61359;BME280;47228;46.762;23.598;2024-01-15T12:38:22;95690.05;;;1.31;71.89
61359;BME280;47228;46.762;23.598;2024-01-15T12:40:50;95687.77;;;1.31;71.85
61359;BME280;47228;46.762;23.598;2024-01-15T12:43:19;95684.96;;;1.33;71.95
61359;BME280;47228;46.762;23.598;2024-01-15T12:45:47;95676.52;;;1.35;72.28
61359;BME280;47228;46.762;23.598;2024-01-15T12:48:16;95672.38;;;1.39;72.33
61359;BME280;47228;46.762;23.598;2024-01-15T12:50:46;95665.94;;;1.43;72.54
61359;BME280;47228;46.762;23.598;2024-01-15T12:53:15;95672.58;;;1.48;72.76
61359;BME280;47228;46.762;23.598;2024-01-15T12:55:45;95678.13;;;1.51;72.74
61359;BME280;47228;46.762;23.598;2024-01-15T12:58:13;95679.06;;;1.53;72.85
61359;BME280;47228;46.762;23.598;2024-01-15T13:00:43;95671.65;;;1.55;72.81
61359;BME280;47228;46.762;23.598;2024-01-15T13:03:12;95671.08;;;1.55;73.02
61359;BME280;47228;46.762;23.598;2024-01-15T13:05:41;95680.88;;;1.55;73.01
61359;BME280;47228;46.762;23.598;2024-01-15T13:08:10;95687.78;;;1.54;73.21
61359;BME280;47228;46.762;23.598;2024-01-15T13:10:38;95692.69;;;1.53;72.93
61359;BME280;47228;46.762;23.598;2024-01-15T13:13:08;95695.06;;;1.49;72.94
61359;BME280;47228;46.762;23.598;2024-01-15T13:15:36;95691.05;;;1.46;73.09
61359;BME280;47228;46.762;23.598;2024-01-15T13:18:05;95687.39;;;1.46;73.42
61359;BME280;47228;46.762;23.598;2024-01-15T13:20:33;95697.38;;;1.47;73.64
61359;BME280;47228;46.762;23.598;2024-01-15T13:23:02;95699.51;;;1.47;73.67